Weather at Yverdon-les-Bains Airport

Public forecast

Using degrees Celsius for public forecast. Weather courtesy of forecast.io.

Closest aviation weather report (METAR) to Yverdon-les-Bains Airport

Closest report is Payerne Air Base, 13.3 nm (24.7 km) ENE. Retrieved 2021/01/20 11:20 UTC (21 minutes ago):

LSMP 201120Z AUTO VRB02KT 9999NDV NCD 02/M01 Q1010 RMK

Closest aviation forecast (TAF) to Yverdon-les-Bains Airport

Closest forecast is Payerne Air Base, 13.3 nm (24.7 km) ENE. Retrieved 2021/01/20 10:00 UTC (2 hours ago):

TAF LSMP 200925Z 2010/2116 VRB02KT CAVOK BECMG 2022/2101 9999 BKN070 BECMG 2104/2106 23010KT